createdAt,value
2023-04-11T00:00:17.275Z,54.85
2023-04-11T00:02:45.038Z,54.04
2023-04-11T00:05:12.195Z,53.99
2023-04-11T00:07:38.901Z,53.40
2023-04-11T00:10:07.412Z,54.17
2023-04-11T00:12:34.103Z,54.65
2023-04-11T00:15:00.781Z,55.22
2023-04-11T00:17:31.484Z,54.73
2023-04-11T00:20:01.669Z,55.04
2023-04-11T00:22:28.477Z,55.11
2023-04-11T00:24:55.252Z,54.46
2023-04-11T00:27:22.123Z,55.12
2023-04-11T00:29:48.779Z,55.39
2023-04-11T00:32:15.544Z,55.02
2023-04-11T00:34:42.384Z,54.25
2023-04-11T00:37:09.151Z,54.57
2023-04-11T00:39:35.847Z,54.62
2023-04-11T00:42:09.025Z,55.46
2023-04-11T00:44:36.435Z,56.11
2023-04-11T00:47:06.612Z,56.01
2023-04-11T00:49:33.877Z,55.11
2023-04-11T00:52:00.861Z,56.24
2023-04-11T00:54:30.074Z,57.54
2023-04-11T00:56:59.732Z,57.02
2023-04-11T00:59:28.660Z,56.56
2023-04-11T01:01:56.357Z,56.31
2023-04-11T01:04:24.295Z,57.13
2023-04-11T01:06:54.469Z,56.82
2023-04-11T01:09:25.897Z,57.00
2023-04-11T01:11:53.092Z,57.75
2023-04-11T01:14:20.848Z,58.39
2023-04-11T01:16:48.551Z,58.66
2023-04-11T01:19:21.191Z,58.55
2023-04-11T01:21:49.966Z,57.57
2023-04-11T01:24:17.867Z,57.57
2023-04-11T01:26:46.900Z,55.72
2023-04-11T01:29:15.622Z,56.30
2023-04-11T01:31:42.660Z,55.70
2023-04-11T01:34:12.900Z,55.25
2023-04-11T01:36:41.355Z,56.37
2023-04-11T01:39:08.196Z,56.78
2023-04-11T01:41:36.032Z,56.95
2023-04-11T01:44:04.161Z,56.61
2023-04-11T01:46:31.355Z,54.98
2023-04-11T01:49:00.148Z,56.43
2023-04-11T01:51:27.661Z,56.53
2023-04-11T01:53:55.015Z,56.62
2023-04-11T01:56:21.995Z,56.67
2023-04-11T01:58:48.718Z,55.83
2023-04-11T02:01:21.765Z,55.95
2023-04-11T02:03:48.729Z,56.42
2023-04-11T02:06:16.073Z,56.37
2023-04-11T02:08:44.011Z,57.04
2023-04-11T02:11:10.954Z,56.63
2023-04-11T02:13:38.338Z,56.78
2023-04-11T02:16:09.189Z,57.10
2023-04-11T02:18:36.461Z,57.00
2023-04-11T02:21:03.412Z,56.82
2023-04-11T02:23:30.406Z,56.51
2023-04-11T02:25:57.079Z,56.29
2023-04-11T02:28:24.026Z,56.48
2023-04-11T02:30:53.185Z,57.50
2023-04-11T02:33:20.454Z,57.85
2023-04-11T02:35:47.686Z,57.81
2023-04-11T02:38:14.809Z,58.45
2023-04-11T02:40:41.501Z,58.51
2023-04-11T02:43:08.304Z,58.02
2023-04-11T02:45:35.221Z,58.51
2023-04-11T02:48:02.793Z,58.28
2023-04-11T02:50:32.463Z,57.87
2023-04-11T02:52:59.280Z,58.23
2023-04-11T02:55:28.420Z,57.79
2023-04-11T02:57:55.539Z,58.04
2023-04-11T03:00:22.626Z,58.06
2023-04-11T03:02:56.846Z,58.32
2023-04-11T03:05:24.890Z,58.68
2023-04-11T03:07:53.624Z,58.43
2023-04-11T03:10:20.659Z,58.52
2023-04-11T03:12:47.747Z,58.97
2023-04-11T03:15:15.719Z,58.69
2023-04-11T03:17:42.565Z,58.67
2023-04-11T03:20:13.881Z,59.35
2023-04-11T03:22:46.677Z,58.51
2023-04-11T03:25:14.612Z,58.50
2023-04-11T03:27:42.568Z,58.71
2023-04-11T03:30:11.713Z,58.66
2023-04-11T03:32:42.094Z,58.96
2023-04-11T03:35:09.654Z,58.02
2023-04-11T03:37:39.615Z,57.92
2023-04-11T03:40:09.942Z,58.52
2023-04-11T03:42:39.990Z,58.58
2023-04-11T03:45:09.790Z,58.67
2023-04-11T03:47:36.721Z,58.83
2023-04-11T03:50:04.535Z,58.91
2023-04-11T03:52:38.126Z,59.17
2023-04-11T03:55:10.101Z,59.49
2023-04-11T03:57:36.901Z,59.22
2023-04-11T04:00:07.659Z,58.88
2023-04-11T04:02:42.126Z,59.13
2023-04-11T04:05:13.390Z,59.65
2023-04-11T04:07:42.255Z,60.34
2023-04-11T04:10:16.531Z,60.05
2023-04-11T04:12:47.680Z,60.24
2023-04-11T04:15:17.587Z,59.42
2023-04-11T04:17:47.460Z,59.26
2023-04-11T04:20:35.807Z,59.49
2023-04-11T04:23:04.650Z,59.65
2023-04-11T04:25:49.883Z,59.49
2023-04-11T04:28:22.296Z,59.97
2023-04-11T04:30:54.117Z,60.03
2023-04-11T04:33:23.020Z,59.18
2023-04-11T04:35:58.226Z,58.58
2023-04-11T04:38:29.662Z,58.85
2023-04-11T04:40:59.057Z,59.25
2023-04-11T04:43:27.344Z,59.05
2023-04-11T04:46:17.991Z,59.16
2023-04-11T04:48:48.980Z,59.54
2023-04-11T04:51:15.852Z,59.15
2023-04-11T04:53:42.778Z,59.95
2023-04-11T04:56:11.802Z,59.84
2023-04-11T04:58:41.458Z,60.18
2023-04-11T05:01:11.854Z,59.87
2023-04-11T05:03:39.109Z,59.65
2023-04-11T05:06:11.086Z,59.35
2023-04-11T05:08:39.110Z,59.88
2023-04-11T05:11:08.713Z,59.98
2023-04-11T05:13:36.532Z,60.44
2023-04-11T05:16:04.959Z,60.29
2023-04-11T05:18:31.765Z,59.83
2023-04-11T05:20:58.649Z,60.06
2023-04-11T05:23:32.309Z,59.81
2023-04-11T05:26:01.917Z,60.50
2023-04-11T05:28:31.765Z,60.87
2023-04-11T05:30:59.269Z,60.95
2023-04-11T05:33:27.002Z,61.41
2023-04-11T05:35:56.100Z,61.33
2023-04-11T05:38:23.819Z,61.16
2023-04-11T05:40:50.626Z,60.82
2023-04-11T05:43:17.304Z,61.14
2023-04-11T05:45:50.735Z,61.84
2023-04-11T05:48:19.751Z,62.51
2023-04-11T05:50:47.669Z,62.91
2023-04-11T05:53:14.495Z,63.41
2023-04-11T05:55:41.267Z,63.62
2023-04-11T05:58:09.320Z,64.02
2023-04-11T06:00:38.206Z,63.70
2023-04-11T06:03:06.085Z,63.50
2023-04-11T06:05:33.630Z,64.15
2023-04-11T06:08:01.808Z,63.75
2023-04-11T06:10:29.593Z,62.98
2023-04-11T06:12:56.863Z,61.80
2023-04-11T06:15:25.855Z,61.94
2023-04-11T06:17:53.006Z,59.92
2023-04-11T06:20:21.207Z,60.01
2023-04-11T06:22:51.255Z,60.24
2023-04-11T06:25:19.962Z,60.45
2023-04-11T06:27:47.323Z,60.33
2023-04-11T06:30:14.675Z,60.17
2023-04-11T06:32:41.477Z,60.85
2023-04-11T06:35:08.661Z,60.87
2023-04-11T06:37:35.656Z,61.30
2023-04-11T06:40:02.602Z,59.81
2023-04-11T06:42:29.291Z,59.10
2023-04-11T06:44:57.677Z,59.07
2023-04-11T06:47:24.396Z,57.30
2023-04-11T06:49:51.170Z,58.26
2023-04-11T06:52:18.170Z,58.56
2023-04-11T06:54:44.824Z,58.95
2023-04-11T06:57:11.532Z,60.26
2023-04-11T06:59:38.331Z,60.43
2023-04-11T07:02:05.269Z,60.36
2023-04-11T07:04:32.280Z,59.82
2023-04-11T07:06:59.012Z,58.55
2023-04-11T07:09:26.050Z,58.43
2023-04-11T07:11:52.696Z,58.01
2023-04-11T07:14:19.466Z,57.06
2023-04-11T07:16:46.286Z,55.98
2023-04-11T07:19:13.063Z,56.00
2023-04-11T07:21:39.936Z,56.97
2023-04-11T07:24:07.134Z,57.01
2023-04-11T07:26:35.922Z,55.81
2023-04-11T07:29:02.834Z,57.36
2023-04-11T07:31:29.557Z,56.96
2023-04-11T07:33:56.513Z,57.99
2023-04-11T07:36:23.478Z,57.45
2023-04-11T07:38:50.499Z,57.06
2023-04-11T07:41:17.334Z,56.79
2023-04-11T07:43:44.234Z,54.93
2023-04-11T07:46:12.349Z,53.92
2023-04-11T07:48:39.374Z,53.67
2023-04-11T07:51:06.375Z,53.71
2023-04-11T07:53:33.266Z,53.23
2023-04-11T07:56:00.489Z,52.65
2023-04-11T07:58:28.621Z,51.82
2023-04-11T08:00:55.411Z,50.77
2023-04-11T08:03:23.817Z,50.73
2023-04-11T08:05:51.263Z,50.38
2023-04-11T08:08:17.928Z,52.25
2023-04-11T08:10:44.734Z,51.26
2023-04-11T08:13:11.628Z,52.07
2023-04-11T08:15:38.889Z,51.47
2023-04-11T08:18:06.025Z,50.60
2023-04-11T08:20:33.079Z,49.98
2023-04-11T08:23:00.534Z,50.17
2023-04-11T08:25:27.403Z,51.16
2023-04-11T08:27:54.407Z,51.40
2023-04-11T08:30:21.387Z,49.69
2023-04-11T08:32:48.222Z,49.12
2023-04-11T08:35:15.022Z,49.47
2023-04-11T08:37:41.843Z,49.02
2023-04-11T08:40:09.243Z,50.27
2023-04-11T08:42:36.384Z,49.76
2023-04-11T08:45:05.472Z,47.23
2023-04-11T08:47:32.436Z,46.28
2023-04-11T08:49:59.403Z,49.92
2023-04-11T08:52:26.325Z,49.62
2023-04-11T08:54:57.108Z,49.17
2023-04-11T08:57:28.707Z,48.85
2023-04-11T08:59:57.254Z,48.90
2023-04-11T09:02:24.063Z,49.31
2023-04-11T09:04:51.950Z,47.57
2023-04-11T09:07:19.308Z,47.75
2023-04-11T09:09:46.396Z,47.94
2023-04-11T09:12:13.533Z,45.67
2023-04-11T09:14:40.770Z,46.05
2023-04-11T09:17:16.975Z,46.05
2023-04-11T09:19:45.131Z,46.27
2023-04-11T09:22:15.592Z,45.12
2023-04-11T09:24:42.951Z,45.52
2023-04-11T09:27:13.331Z,45.36
2023-04-11T09:29:45.623Z,47.50
2023-04-11T09:32:34.471Z,44.72
2023-04-11T09:35:09.764Z,45.38
2023-04-11T09:37:44.224Z,46.57
2023-04-11T09:40:12.084Z,46.48
2023-04-11T09:42:39.366Z,46.58
2023-04-11T09:45:15.792Z,45.92
2023-04-11T09:47:44.580Z,45.63
2023-04-11T09:50:12.506Z,46.02
2023-04-11T09:52:41.860Z,44.14
2023-04-11T09:55:13.082Z,43.58
2023-04-11T09:57:46.915Z,43.87
2023-04-11T10:00:18.483Z,44.46
2023-04-11T10:02:48.938Z,42.93
2023-04-11T10:05:18.163Z,43.36
2023-04-11T10:07:52.531Z,42.48
2023-04-11T10:10:21.665Z,44.19
2023-04-11T10:12:49.152Z,43.88
2023-04-11T10:15:16.853Z,41.59
2023-04-11T10:18:03.817Z,42.09
2023-04-11T10:20:50.648Z,43.76
2023-04-11T10:23:17.413Z,42.88
2023-04-11T10:26:00.145Z,45.47
2023-04-11T10:28:35.962Z,43.41
2023-04-11T10:31:13.186Z,43.35
2023-04-11T10:34:00.938Z,42.87
2023-04-11T10:36:27.926Z,41.97
2023-04-11T10:38:54.570Z,42.19
2023-04-11T10:41:33.228Z,42.39
2023-04-11T10:44:21.436Z,41.82
2023-04-11T10:46:49.504Z,41.68
2023-04-11T10:49:52.126Z,41.43
2023-04-11T10:52:23.738Z,41.26
2023-04-11T10:54:54.449Z,40.33
2023-04-11T10:57:21.714Z,41.78
2023-04-11T10:59:51.517Z,40.83
2023-04-11T11:02:19.851Z,42.70
2023-04-11T11:04:47.318Z,43.64
2023-04-11T11:07:17.059Z,44.14
2023-04-11T11:09:48.883Z,38.25
2023-04-11T11:12:16.959Z,41.21
2023-04-11T11:14:45.989Z,40.06
2023-04-11T11:17:14.475Z,42.16
2023-04-11T11:19:48.532Z,42.10
2023-04-11T11:22:25.451Z,42.33
2023-04-11T11:24:52.759Z,40.81
2023-04-11T11:27:24.583Z,38.24
2023-04-11T11:29:52.079Z,38.91
2023-04-11T11:32:28.678Z,42.77
2023-04-11T11:34:57.402Z,39.99
2023-04-11T11:37:24.315Z,41.17
2023-04-11T11:39:51.698Z,39.62
2023-04-11T11:42:18.874Z,41.21
2023-04-11T11:44:45.969Z,40.65
2023-04-11T11:47:15.408Z,40.88
2023-04-11T11:49:54.200Z,38.96
2023-04-11T11:52:35.943Z,40.89
2023-04-11T11:55:06.474Z,40.01
2023-04-11T11:57:36.753Z,41.07
2023-04-11T12:00:10.111Z,40.02
2023-04-11T12:02:36.992Z,40.43
2023-04-11T12:05:06.321Z,41.16
2023-04-11T12:07:40.647Z,39.29
2023-04-11T12:10:11.649Z,40.71
2023-04-11T12:12:39.802Z,39.89
2023-04-11T12:15:14.954Z,40.29
2023-04-11T12:17:42.278Z,41.02
2023-04-11T12:20:10.641Z,38.96
2023-04-11T12:22:38.109Z,40.04
2023-04-11T12:25:14.825Z,40.23
2023-04-11T12:27:43.117Z,39.39
2023-04-11T12:30:11.199Z,39.57
2023-04-11T12:32:38.473Z,38.51
2023-04-11T12:35:06.697Z,40.15
2023-04-11T12:37:34.460Z,39.14
2023-04-11T12:40:01.953Z,39.21
2023-04-11T12:42:28.717Z,38.35
2023-04-11T12:44:55.517Z,39.45
2023-04-11T12:47:22.293Z,37.93
2023-04-11T12:49:48.946Z,38.81
2023-04-11T12:52:15.748Z,38.32
2023-04-11T12:54:42.359Z,39.84
2023-04-11T12:57:09.156Z,39.16
2023-04-11T12:59:36.140Z,39.42
2023-04-11T13:02:03.121Z,39.77
2023-04-11T13:04:30.507Z,39.99
2023-04-11T13:07:01.251Z,39.59
2023-04-11T13:09:29.722Z,38.50
2023-04-11T13:11:57.021Z,42.19
2023-04-11T13:14:23.952Z,40.91
2023-04-11T13:16:50.996Z,39.48
2023-04-11T13:19:17.768Z,40.52
2023-04-11T13:21:44.493Z,39.21
2023-04-11T13:24:11.365Z,38.65
2023-04-11T13:26:39.395Z,38.68
2023-04-11T13:29:07.753Z,40.64
2023-04-11T13:31:34.618Z,37.90
2023-04-11T13:34:02.195Z,39.15
2023-04-11T13:36:29.323Z,38.94
2023-04-11T13:38:57.510Z,39.11
2023-04-11T13:41:27.353Z,37.22
2023-04-11T13:43:54.260Z,39.90
2023-04-11T13:46:21.854Z,38.86
2023-04-11T13:48:49.117Z,36.77
2023-04-11T13:51:15.947Z,38.79
2023-04-11T13:53:42.623Z,40.14
2023-04-11T13:56:09.335Z,37.08
2023-04-11T13:58:36.954Z,38.33
2023-04-11T14:01:04.324Z,36.88
2023-04-11T14:03:33.715Z,38.97
2023-04-11T14:06:01.561Z,39.19
2023-04-11T14:08:29.108Z,38.81
2023-04-11T14:10:56.429Z,39.84
2023-04-11T14:13:23.560Z,39.55
2023-04-11T14:16:04.790Z,40.38
2023-04-11T14:18:35.543Z,39.75
2023-04-11T14:21:02.522Z,39.05
2023-04-11T14:23:29.584Z,39.98
2023-04-11T14:25:56.790Z,40.50
2023-04-11T14:28:26.484Z,40.73
2023-04-11T14:30:54.170Z,40.56
2023-04-11T14:33:21.064Z,38.59
2023-04-11T14:35:47.880Z,39.92
2023-04-11T14:38:16.000Z,40.58
2023-04-11T14:40:42.827Z,39.61
2023-04-11T14:43:09.527Z,40.93
2023-04-11T14:45:36.628Z,40.56
2023-04-11T14:48:03.438Z,40.56
2023-04-11T14:50:30.574Z,41.33
2023-04-11T14:52:57.211Z,41.59
2023-04-11T14:55:24.218Z,41.99
2023-04-11T14:57:55.613Z,40.23
2023-04-11T15:00:24.747Z,39.15
2023-04-11T15:02:54.357Z,40.72
2023-04-11T15:05:22.554Z,41.25
2023-04-11T15:07:51.461Z,41.28
2023-04-11T15:10:24.499Z,40.24
2023-04-11T15:12:52.316Z,40.54
2023-04-11T15:15:19.034Z,40.00
2023-04-11T15:17:48.467Z,40.39
2023-04-11T15:20:16.544Z,40.92
2023-04-11T15:22:45.586Z,41.80
2023-04-11T15:25:16.246Z,40.97
2023-04-11T15:27:43.404Z,41.23
2023-04-11T15:30:11.372Z,41.49
2023-04-11T15:32:44.136Z,41.78
2023-04-11T15:35:11.051Z,41.70
2023-04-11T15:37:37.707Z,42.24
2023-04-11T15:40:09.442Z,41.01
2023-04-11T15:42:37.577Z,41.31
2023-04-11T15:45:04.969Z,41.01
2023-04-11T15:47:31.788Z,41.49
2023-04-11T15:50:04.068Z,41.23
2023-04-11T15:52:30.802Z,41.08
2023-04-11T15:54:57.595Z,41.52
2023-04-11T15:57:24.885Z,41.54
2023-04-11T15:59:51.603Z,41.12
2023-04-11T16:02:18.388Z,40.25
2023-04-11T16:04:48.057Z,38.55
2023-04-11T16:07:18.627Z,39.35
2023-04-11T16:09:46.550Z,38.87
2023-04-11T16:12:13.328Z,39.28
2023-04-11T16:14:40.650Z,39.79
2023-04-11T16:17:07.510Z,36.54
2023-04-11T16:19:34.221Z,36.94
2023-04-11T16:22:00.934Z,36.66
2023-04-11T16:24:31.182Z,37.03
2023-04-11T16:26:58.445Z,36.48
2023-04-11T16:29:25.406Z,37.68
2023-04-11T16:31:52.225Z,38.87
2023-04-11T16:34:19.159Z,39.34
2023-04-11T16:36:46.000Z,39.69
2023-04-11T16:39:12.880Z,40.15
2023-04-11T16:41:39.584Z,40.91
2023-04-11T16:44:11.487Z,40.74
2023-04-11T16:46:41.833Z,40.76
2023-04-11T16:49:09.179Z,40.69
2023-04-11T16:51:36.678Z,41.84
2023-04-11T16:54:10.218Z,41.43
2023-04-11T16:56:37.613Z,41.39
2023-04-11T16:59:05.111Z,41.36
2023-04-11T17:01:32.065Z,41.30
2023-04-11T17:03:59.113Z,41.92
2023-04-11T17:06:27.172Z,41.88
2023-04-11T17:08:53.794Z,41.42
2023-04-11T17:11:20.619Z,42.37
2023-04-11T17:13:48.684Z,42.86
2023-04-11T17:16:17.623Z,42.56
2023-04-11T17:18:44.493Z,42.77
2023-04-11T17:21:11.310Z,43.57
2023-04-11T17:23:43.180Z,43.95
2023-04-11T17:26:11.658Z,44.50
2023-04-11T17:28:39.608Z,44.45
2023-04-11T17:31:14.132Z,45.20
2023-04-11T17:33:41.898Z,44.96
2023-04-11T17:36:10.825Z,45.67
2023-04-11T17:38:38.568Z,46.33
2023-04-11T17:41:14.317Z,46.36
2023-04-11T17:43:42.386Z,46.39
2023-04-11T17:46:09.288Z,46.58
2023-04-11T17:48:36.679Z,46.48
2023-04-11T17:51:05.726Z,46.41
2023-04-11T17:53:33.042Z,46.04
2023-04-11T17:56:06.169Z,47.13
2023-04-11T17:58:33.467Z,47.19
2023-04-11T18:01:00.185Z,47.62
2023-04-11T18:03:27.378Z,47.05
2023-04-11T18:05:54.915Z,47.91
2023-04-11T18:08:36.203Z,47.69
2023-04-11T18:11:09.835Z,47.63
2023-04-11T18:13:36.516Z,47.74
2023-04-11T18:16:03.455Z,47.49
2023-04-11T18:18:30.477Z,47.42
2023-04-11T18:21:06.513Z,47.85
2023-04-11T18:23:34.228Z,47.53
2023-04-11T18:26:00.979Z,48.18
2023-04-11T18:28:27.604Z,47.80
2023-04-11T18:30:54.471Z,48.65
2023-04-11T18:33:21.627Z,49.34
2023-04-11T18:35:48.426Z,49.16
2023-04-11T18:38:40.317Z,48.86
2023-04-11T18:41:08.055Z,48.77
2023-04-11T18:43:35.707Z,49.84
2023-04-11T18:46:02.554Z,50.03
2023-04-11T18:48:29.358Z,49.67
2023-04-11T18:51:00.564Z,49.58
2023-04-11T18:53:29.094Z,50.42
2023-04-11T18:55:55.774Z,49.30
2023-04-11T18:58:25.575Z,49.24
2023-04-11T19:00:53.424Z,49.26
2023-04-11T19:03:20.841Z,49.29
2023-04-11T19:05:48.215Z,49.54
2023-04-11T19:08:15.009Z,49.62
2023-04-11T19:10:41.702Z,50.14
2023-04-11T19:13:08.774Z,49.80
2023-04-11T19:15:35.664Z,49.38
2023-04-11T19:18:02.518Z,50.32
2023-04-11T19:20:29.511Z,49.31
2023-04-11T19:22:56.331Z,49.77
2023-04-11T19:25:23.094Z,49.22
2023-04-11T19:27:51.080Z,49.76
2023-04-11T19:30:17.916Z,49.56
2023-04-11T19:32:47.229Z,49.74
2023-04-11T19:35:14.482Z,50.83
2023-04-11T19:37:41.259Z,49.76
2023-04-11T19:40:14.069Z,51.55
2023-04-11T19:42:41.836Z,51.11
2023-04-11T19:45:12.037Z,51.55
2023-04-11T19:47:40.796Z,50.91
2023-04-11T19:50:12.065Z,50.78
2023-04-11T19:52:39.666Z,50.95
2023-04-11T19:55:07.635Z,50.71
2023-04-11T19:57:34.450Z,50.74
2023-04-11T20:00:01.177Z,50.31
2023-04-11T20:02:27.976Z,50.76
2023-04-11T20:04:56.265Z,50.77
2023-04-11T20:07:23.348Z,51.17
2023-04-11T20:09:50.337Z,51.75
2023-04-11T20:12:17.106Z,52.00
2023-04-11T20:14:43.928Z,51.80
2023-04-11T20:17:10.850Z,52.45
2023-04-11T20:19:38.020Z,52.47
2023-04-11T20:22:04.985Z,52.33
2023-04-11T20:24:31.566Z,51.60
2023-04-11T20:26:58.440Z,51.10
2023-04-11T20:29:30.906Z,51.19
2023-04-11T20:31:58.099Z,51.21
2023-04-11T20:34:24.841Z,51.50
2023-04-11T20:36:51.627Z,51.81
2023-04-11T20:39:18.298Z,50.96
2023-04-11T20:41:45.544Z,51.40
2023-04-11T20:44:12.282Z,51.44
2023-04-11T20:46:39.488Z,52.13
2023-04-11T20:49:06.949Z,51.98
2023-04-11T20:51:34.622Z,52.51
2023-04-11T20:54:01.339Z,53.28
2023-04-11T20:56:28.083Z,52.95
2023-04-11T20:58:54.733Z,52.63
2023-04-11T21:01:22.509Z,52.65
2023-04-11T21:03:51.351Z,53.44
2023-04-11T21:06:18.270Z,53.56
2023-04-11T21:08:44.908Z,54.70
2023-04-11T21:11:11.666Z,54.76
2023-04-11T21:13:38.306Z,54.52
2023-04-11T21:16:05.539Z,54.79
2023-04-11T21:18:32.316Z,54.51
2023-04-11T21:20:59.069Z,54.12
2023-04-11T21:23:26.424Z,54.70
2023-04-11T21:25:53.143Z,54.93
2023-04-11T21:28:19.809Z,54.51
2023-04-11T21:30:46.555Z,54.75
2023-04-11T21:33:13.269Z,55.40
2023-04-11T21:35:39.978Z,55.66
2023-04-11T21:38:06.772Z,56.14
2023-04-11T21:40:33.580Z,55.66
2023-04-11T21:43:00.452Z,55.71
2023-04-11T21:45:27.457Z,54.83
2023-04-11T21:47:54.367Z,55.16
2023-04-11T21:50:21.160Z,56.01
2023-04-11T21:52:47.810Z,54.32
2023-04-11T21:55:15.415Z,54.73
2023-04-11T21:57:42.194Z,55.16
2023-04-11T22:00:11.082Z,55.24
2023-04-11T22:02:41.125Z,55.21
2023-04-11T22:05:12.312Z,55.21
2023-04-11T22:07:48.362Z,54.83
2023-04-11T22:10:22.249Z,54.46
2023-04-11T22:12:49.282Z,54.44
2023-04-11T22:15:18.430Z,54.72
2023-04-11T22:17:50.314Z,55.00
2023-04-11T22:20:18.507Z,55.57
2023-04-11T22:22:45.328Z,56.33
2023-04-11T22:25:12.349Z,56.58
2023-04-11T22:27:39.081Z,55.98
2023-04-11T22:30:07.473Z,56.26
2023-04-11T22:32:34.621Z,56.43
2023-04-11T22:35:01.371Z,56.29
2023-04-11T22:37:28.025Z,56.87
2023-04-11T22:39:55.153Z,56.90
2023-04-11T22:42:21.915Z,56.81
2023-04-11T22:44:48.723Z,57.05
2023-04-11T22:47:16.586Z,57.40
2023-04-11T22:49:45.098Z,57.74
2023-04-11T22:52:15.610Z,58.17
2023-04-11T22:54:43.915Z,59.62
2023-04-11T22:57:10.666Z,60.10
2023-04-11T22:59:37.482Z,60.89
2023-04-11T23:02:04.239Z,61.18
2023-04-11T23:04:32.070Z,61.48
2023-04-11T23:06:59.292Z,61.68
2023-04-11T23:09:26.435Z,61.65
2023-04-11T23:11:53.576Z,61.67
2023-04-11T23:14:21.058Z,61.71
2023-04-11T23:16:48.351Z,61.70
2023-04-11T23:19:15.294Z,61.69
2023-04-11T23:21:42.181Z,61.68
2023-04-11T23:24:09.997Z,61.88
2023-04-11T23:26:37.132Z,62.64
2023-04-11T23:29:04.071Z,61.56
2023-04-11T23:31:31.774Z,61.91
2023-04-11T23:33:58.916Z,62.17
2023-04-11T23:36:27.496Z,61.74
2023-04-11T23:38:54.514Z,61.62
2023-04-11T23:41:21.301Z,62.08
2023-04-11T23:43:47.994Z,62.61
2023-04-11T23:46:15.136Z,62.60
2023-04-11T23:48:42.390Z,62.41
2023-04-11T23:51:09.070Z,62.94
2023-04-11T23:53:35.807Z,62.05
2023-04-11T23:56:02.537Z,61.84
2023-04-11T23:58:29.294Z,61.73
